Time;durP1;ratioP1;P1;durP2;ratioP2;P2;SDS_P1;SDS_P2;PMS_P1;PMS_P2;Temp;Humidity;BMP_temperature;BMP_pressure;BME280_temperature;BME280_humidity;BME280_pressure;Samples;Min_cycle;Max_cycle;Signal;HPM_P1;HPM_P2
2021/03/31 00:00:23;;;;;;;12.93;7.32;;;;;;;11.71;49.81;101441.78;5008184;28;20068;-82
2021/03/31 00:02:53;;;;;;;13.90;7.05;;;;;;;11.74;49.88;101444.34;5008664;28;20470;-80
2021/03/31 00:05:19;;;;;;;11.52;6.80;;;;;;;11.74;49.90;101441.69;5020763;28;20061;-86
2021/03/31 00:07:45;;;;;;;13.23;6.28;;;;;;;11.70;49.82;101434.75;5013278;28;20630;-79
2021/03/31 00:10:18;;;;;;;11.23;5.90;;;;;;;11.58;49.92;101431.63;5029020;28;20108;-81
2021/03/31 00:12:44;;;;;;;12.27;6.03;;;;;;;11.52;50.26;101434.47;5013585;28;20057;-81
2021/03/31 00:15:11;;;;;;;10.05;5.75;;;;;;;11.50;50.37;101430.13;5016961;28;20088;-81
2021/03/31 00:17:37;;;;;;;10.50;6.05;;;;;;;11.47;50.45;101436.44;5032217;28;20559;-80
2021/03/31 00:20:04;;;;;;;12.82;6.80;;;;;;;11.43;50.86;101432.13;5017059;28;20077;-86
2021/03/31 00:22:30;;;;;;;12.07;6.90;;;;;;;11.43;51.10;101434.78;5016915;28;20061;-80
2021/03/31 00:24:56;;;;;;;10.10;6.60;;;;;;;11.37;50.90;101421.72;5010293;28;20553;-83
2021/03/31 00:27:23;;;;;;;9.50;6.07;;;;;;;11.37;50.99;101424.38;5007239;28;20079;-82
2021/03/31 00:29:49;;;;;;;11.20;6.35;;;;;;;11.34;50.84;101424.47;5003854;28;20087;-82
2021/03/31 00:32:15;;;;;;;8.90;6.13;;;;;;;11.32;50.94;101413.09;5020228;28;20077;-80
2021/03/31 00:34:41;;;;;;;11.45;6.68;;;;;;;11.31;51.09;101416.66;5016852;28;20053;-80
2021/03/31 00:37:07;;;;;;;12.50;6.18;;;;;;;11.28;51.30;101416.75;5027177;28;20058;-83
2021/03/31 00:39:33;;;;;;;10.13;6.35;;;;;;;11.21;51.52;101417.84;5027388;28;20122;-81
2021/03/31 00:42:00;;;;;;;10.63;5.97;;;;;;;11.20;51.45;101416.13;5015709;28;20053;-84
2021/03/31 00:44:26;;;;;;;11.60;6.22;;;;;;;11.20;51.74;101421.44;5031971;28;20097;-81
2021/03/31 00:46:55;;;;;;;10.15;6.95;;;;;;;11.19;51.35;101419.69;5024507;28;20077;-79
2021/03/31 00:49:21;;;;;;;13.32;6.97;;;;;;;11.19;51.34;101420.56;5022920;28;20073;-87
2021/03/31 00:51:48;;;;;;;12.13;6.35;;;;;;;11.15;51.31;101411.00;5025403;28;20042;-79
2021/03/31 00:54:14;;;;;;;12.27;7.10;;;;;;;11.19;51.61;101409.09;5029313;28;20109;-80
2021/03/31 00:56:41;;;;;;;10.20;6.60;;;;;;;11.15;51.70;101402.19;5021691;28;20093;-82
2021/03/31 00:59:08;;;;;;;9.90;6.75;;;;;;;11.09;51.77;101391.75;5018674;28;20057;-81
2021/03/31 01:01:35;;;;;;;12.40;6.82;;;;;;;11.09;51.71;101408.53;5010792;28;20061;-86
2021/03/31 01:04:01;;;;;;;9.43;6.80;;;;;;;11.04;52.07;101396.34;5033071;28;20061;-84
2021/03/31 01:06:27;;;;;;;11.38;6.50;;;;;;;10.99;52.04;101393.00;5041500;28;20041;-80
2021/03/31 01:08:54;;;;;;;9.10;6.28;;;;;;;10.98;52.02;101383.31;5017812;28;20084;-80
2021/03/31 01:11:46;;;;;;;12.75;6.93;;;;;;;10.94;52.52;101385.19;5030281;28;20520;-83
2021/03/31 01:14:12;;;;;;;11.93;6.90;;;;;;;10.91;52.53;101385.28;5016481;28;20153;-80
2021/03/31 01:16:46;;;;;;;12.75;6.78;;;;;;;10.86;52.68;101374.81;5005429;28;20085;-83
2021/03/31 01:19:31;;;;;;;9.95;6.68;;;;;;;10.84;52.76;101381.97;5011325;28;20077;-80
2021/03/31 01:22:03;;;;;;;10.98;6.68;;;;;;;10.81;53.07;101381.22;5014201;28;20062;-79
2021/03/31 01:25:11;;;;;;;10.93;6.32;;;;;;;10.81;52.89;101376.78;5007383;28;20054;-81
2021/03/31 01:27:49;;;;;;;9.32;6.18;;;;;;;10.79;52.82;101369.78;4997961;28;20058;-88
2021/03/31 01:30:35;;;;;;;8.18;5.60;;;;;;;10.75;52.80;101370.78;5033212;28;20057;-80
2021/03/31 01:33:24;;;;;;;10.70;6.15;;;;;;;10.75;52.78;101376.09;5031831;28;20045;-81
2021/03/31 01:35:54;;;;;;;11.00;6.13;;;;;;;10.75;52.47;101368.16;5036337;28;20046;-83
2021/03/31 01:38:24;;;;;;;13.30;6.22;;;;;;;10.75;52.69;101365.50;5025248;28;20057;-83
2021/03/31 01:40:52;;;;;;;12.10;6.05;;;;;;;10.74;53.27;101367.28;5030755;28;20053;-84
2021/03/31 01:43:22;;;;;;;8.68;6.18;;;;;;;10.65;52.80;101372.88;5033604;28;20045;-87
2021/03/31 01:45:56;;;;;;;12.40;6.43;;;;;;;10.54;52.84;101361.75;5027417;28;20034;-86
2021/03/31 01:48:29;;;;;;;9.85;5.82;;;;;;;10.53;52.78;101360.91;5033099;28;20093;-82
2021/03/31 01:51:05;;;;;;;7.78;5.30;;;;;;;10.55;52.41;101359.03;5023128;28;20085;-87
2021/03/31 01:53:32;;;;;;;8.55;5.90;;;;;;;10.53;52.83;101362.69;5005009;28;20664;-80
2021/03/31 01:55:59;;;;;;;10.40;5.95;;;;;;;10.53;52.87;101360.91;5027272;28;20040;-84
2021/03/31 01:58:30;;;;;;;8.65;5.10;;;;;;;10.51;52.87;101362.72;5024467;28;20442;-80
2021/03/31 02:00:57;;;;;;;11.02;6.40;;;;;;;10.53;52.79;101365.31;5022580;28;20077;-80
2021/03/31 02:03:24;;;;;;;12.10;6.00;;;;;;;10.49;53.15;101361.03;5030752;28;20073;-86
2021/03/31 02:05:54;;;;;;;9.68;5.45;;;;;;;10.45;53.15;101351.44;5016716;28;20089;-83
2021/03/31 02:08:22;;;;;;;9.00;5.75;;;;;;;10.37;53.25;101342.88;5020078;28;20038;-79
2021/03/31 02:10:49;;;;;;;7.25;5.25;;;;;;;10.37;53.13;101348.19;5019956;28;20430;-80
2021/03/31 02:13:17;;;;;;;16.58;5.65;;;;;;;10.35;52.75;101335.00;5015220;28;20058;-82
2021/03/31 02:15:44;;;;;;;8.25;5.47;;;;;;;10.36;52.65;101341.16;5018573;28;20120;-82
2021/03/31 02:18:15;;;;;;;7.70;4.85;;;;;;;10.33;52.76;101333.31;5012976;28;20511;-84
2021/03/31 02:20:44;;;;;;;7.72;5.30;;;;;;;10.39;52.02;101335.75;5013025;28;20485;-80
2021/03/31 02:23:10;;;;;;;13.40;5.28;;;;;;;10.41;52.06;101337.44;5008003;28;20450;-82
2021/03/31 02:25:36;;;;;;;11.32;5.63;;;;;;;10.43;51.84;101329.44;5010470;28;20062;-81
2021/03/31 02:28:04;;;;;;;7.90;5.18;;;;;;;10.45;51.60;101319.66;5011855;28;20050;-85
2021/03/31 02:30:30;;;;;;;7.10;4.95;;;;;;;10.42;52.07;101327.69;5016355;28;20462;-81
2021/03/31 02:33:00;;;;;;;8.63;5.55;;;;;;;10.40;52.62;101329.53;5014988;28;20077;-82
2021/03/31 02:35:28;;;;;;;8.87;5.63;;;;;;;10.37;52.03;101322.56;5007331;28;20081;-81
2021/03/31 02:37:59;;;;;;;7.45;5.25;;;;;;;10.40;51.86;101329.53;5012168;28;20059;-87
2021/03/31 02:40:26;;;;;;;8.18;5.88;;;;;;;10.36;52.13;101320.84;5019265;28;20122;-86
2021/03/31 02:42:54;;;;;;;10.02;5.65;;;;;;;10.30;52.83;101321.00;5025706;28;20050;-82
2021/03/31 02:45:22;;;;;;;8.15;5.20;;;;;;;10.19;53.37;101313.41;5024734;28;20053;-81
2021/03/31 02:47:51;;;;;;;10.13;5.65;;;;;;;10.19;53.28;101313.41;5018038;28;20108;-82
2021/03/31 02:50:21;;;;;;;9.63;5.63;;;;;;;10.17;53.35;101317.00;4993700;28;20634;-80
2021/03/31 02:52:50;;;;;;;9.40;5.65;;;;;;;10.09;53.72;101311.03;5017412;28;20104;-80
2021/03/31 02:55:18;;;;;;;11.40;5.85;;;;;;;10.08;53.72;101310.19;5017173;28;20421;-85
2021/03/31 02:57:46;;;;;;;8.50;5.78;;;;;;;10.02;54.30;101310.38;5026675;28;20054;-83
2021/03/31 03:00:13;;;;;;;9.73;6.10;;;;;;;10.00;54.30;101304.25;5026662;28;20050;-82
2021/03/31 03:02:41;;;;;;;9.23;6.32;;;;;;;9.94;54.56;101304.44;5028209;28;20046;-88
2021/03/31 03:05:11;;;;;;;11.43;5.83;;;;;;;9.88;54.52;101304.63;5021143;28;20054;-80
2021/03/31 03:07:38;;;;;;;10.95;5.93;;;;;;;9.80;54.73;101293.41;5029714;28;20050;-83
2021/03/31 03:10:06;;;;;;;13.05;6.07;;;;;;;9.77;55.05;101301.41;5031788;28;20038;-80
2021/03/31 03:12:37;;;;;;;9.25;5.40;;;;;;;9.76;55.40;101297.03;5003794;28;20123;-79
2021/03/31 03:15:05;;;;;;;7.70;5.65;;;;;;;9.74;55.22;101305.03;5019934;28;20061;-82
2021/03/31 03:17:31;;;;;;;8.35;5.72;;;;;;;9.73;55.51;101308.59;5019622;28;20145;-80
2021/03/31 03:19:57;;;;;;;9.95;5.82;;;;;;;9.62;56.07;101299.22;5007764;28;20389;-81
2021/03/31 03:22:25;;;;;;;9.75;6.28;;;;;;;9.55;56.39;101301.19;5013854;28;20104;-82
2021/03/31 03:24:53;;;;;;;9.88;6.20;;;;;;;9.48;56.90;101289.91;5017752;28;20049;-82
2021/03/31 03:27:20;;;;;;;8.55;5.90;;;;;;;9.44;56.95;101295.34;5016271;28;20520;-80
2021/03/31 03:29:48;;;;;;;13.88;6.05;;;;;;;9.27;57.62;101298.44;5014753;28;20481;-80
2021/03/31 03:32:15;;;;;;;11.60;6.45;;;;;;;9.18;57.70;101288.09;5028943;28;20137;-81
2021/03/31 03:34:43;;;;;;;8.75;6.13;;;;;;;9.19;57.79;101288.97;5005904;28;20610;-86
2021/03/31 03:37:10;;;;;;;9.32;5.80;;;;;;;9.19;57.97;101291.63;5021342;28;20064;-79
2021/03/31 03:39:37;;;;;;;8.65;6.13;;;;;;;9.16;57.56;101282.00;5039924;28;20049;-80
2021/03/31 03:42:04;;;;;;;12.77;6.20;;;;;;;9.18;57.90;101281.97;5030902;28;20046;-81
2021/03/31 03:44:31;;;;;;;12.75;6.28;;;;;;;9.10;58.06;101282.19;5030378;28;20054;-86
2021/03/31 03:46:58;;;;;;;11.77;6.28;;;;;;;9.09;58.05;101285.72;5036375;28;20058;-80
2021/03/31 03:49:26;;;;;;;11.32;6.30;;;;;;;9.07;58.20;101287.53;5038940;28;20127;-79
2021/03/31 03:51:52;;;;;;;11.00;6.88;;;;;;;9.02;58.44;101292.94;5018265;28;20150;-80
2021/03/31 03:54:19;;;;;;;8.52;6.20;;;;;;;8.92;58.98;101282.66;5027285;28;20081;-80
2021/03/31 03:56:49;;;;;;;9.73;6.35;;;;;;;8.94;58.97;101288.78;5018070;28;20107;-80
2021/03/31 03:59:20;;;;;;;7.80;5.43;;;;;;;8.93;58.55;101290.56;5016231;28;20065;-81
2021/03/31 04:01:47;;;;;;;13.23;6.00;;;;;;;8.94;58.67;101289.63;5026781;28;20082;-81
2021/03/31 04:04:14;;;;;;;15.07;6.53;;;;;;;8.98;58.86;101295.69;5020077;28;20046;-80
2021/03/31 04:06:40;;;;;;;12.27;6.78;;;;;;;8.94;58.76;101288.78;5019097;28;20129;-83
2021/03/31 04:09:06;;;;;;;10.00;6.40;;;;;;;8.88;58.88;101286.28;5021526;28;20494;-83
2021/03/31 04:11:34;;;;;;;10.20;6.10;;;;;;;8.93;59.27;101294.97;5008735;28;20210;-80
2021/03/31 04:14:04;;;;;;;9.23;5.97;;;;;;;8.90;59.05;101293.25;5021805;28;20161;-80
2021/03/31 04:16:32;;;;;;;12.70;5.85;;;;;;;8.90;59.03;101287.09;5010707;28;20897;-78
2021/03/31 04:19:05;;;;;;;11.75;6.25;;;;;;;8.87;59.16;101285.41;5034639;28;20085;-80
2021/03/31 04:21:35;;;;;;;11.95;5.78;;;;;;;8.85;58.94;101283.72;5007812;28;20359;-79
2021/03/31 04:24:02;;;;;;;10.63;6.22;;;;;;;8.84;59.07;101288.13;5030215;28;20061;-78
2021/03/31 04:26:32;;;;;;;11.95;6.88;;;;;;;8.86;59.04;101285.44;5025563;28;20065;-79
2021/03/31 04:28:59;;;;;;;9.32;6.28;;;;;;;8.78;59.15;101277.75;4993235;28;20127;-81
2021/03/31 04:31:27;;;;;;;10.25;6.30;;;;;;;8.81;59.11;101284.72;5020082;28;20050;-80
2021/03/31 04:33:57;;;;;;;9.93;6.38;;;;;;;8.78;59.44;101272.47;5007326;28;20058;-79
2021/03/31 04:36:23;;;;;;;11.27;6.15;;;;;;;8.86;59.00;101277.53;5014846;28;20080;-80
2021/03/31 04:38:50;;;;;;;8.07;5.95;;;;;;;8.90;58.72;101276.53;5032193;28;20492;-80
2021/03/31 04:41:17;;;;;;;10.55;6.07;;;;;;;8.93;58.60;101281.75;5027727;28;20049;-82
2021/03/31 04:43:44;;;;;;;8.13;5.78;;;;;;;8.96;58.89;101274.63;5023626;28;20081;-78
2021/03/31 04:46:10;;;;;;;12.85;5.90;;;;;;;8.97;58.58;101275.50;5023580;28;20077;-78
2021/03/31 04:48:37;;;;;;;12.70;6.40;;;;;;;8.93;58.57;101269.41;5020567;28;20140;-78
2021/03/31 04:51:05;;;;;;;10.45;5.90;;;;;;;8.95;58.67;101278.16;5010215;28;20046;-78
2021/03/31 04:53:31;;;;;;;13.82;6.03;;;;;;;8.95;58.97;101274.66;5040107;28;20081;-79
2021/03/31 04:55:57;;;;;;;13.93;6.75;;;;;;;8.93;58.87;101265.91;5026936;28;20054;-78
2021/03/31 04:58:24;;;;;;;12.88;6.45;;;;;;;8.88;59.40;101267.78;5019685;28;20058;-79
2021/03/31 05:00:50;;;;;;;10.88;6.70;;;;;;;8.84;59.12;101271.41;5022514;28;20077;-79
2021/03/31 05:03:16;;;;;;;8.68;6.43;;;;;;;8.76;59.08;101256.66;5025002;28;20054;-79
2021/03/31 05:05:42;;;;;;;14.15;6.35;;;;;;;8.77;60.00;101263.66;5011216;28;20054;-79
2021/03/31 05:08:09;;;;;;;12.13;6.72;;;;;;;8.75;59.86;101256.69;5025956;28;20068;-78
2021/03/31 05:10:36;;;;;;;10.38;6.53;;;;;;;8.72;59.91;101260.25;5020085;28;20484;-82
2021/03/31 05:13:03;;;;;;;9.38;6.60;;;;;;;8.77;59.29;101261.03;5025572;28;20053;-78
2021/03/31 05:15:31;;;;;;;10.98;6.38;;;;;;;8.69;60.13;101254.19;5023935;28;20081;-80
2021/03/31 05:17:57;;;;;;;10.40;6.50;;;;;;;8.75;60.38;101262.84;5002749;28;20046;-85
2021/03/31 05:20:23;;;;;;;15.45;6.60;;;;;;;8.78;60.20;101269.81;5018739;28;20085;-82
2021/03/31 05:22:49;;;;;;;11.38;6.63;;;;;;;8.81;60.03;101272.38;5016279;28;20550;-80
2021/03/31 05:25:15;;;;;;;11.82;6.35;;;;;;;8.78;60.36;101265.41;5017865;28;20136;-80
2021/03/31 05:27:42;;;;;;;13.13;6.47;;;;;;;8.79;59.90;101271.56;5015299;28;20064;-78
2021/03/31 05:30:10;;;;;;;13.13;6.45;;;;;;;8.78;60.35;101273.31;5017482;28;20136;-78
2021/03/31 05:32:37;;;;;;;17.35;7.78;;;;;;;8.75;60.11;101273.41;5016605;28;20054;-78
2021/03/31 05:35:08;;;;;;;14.63;6.93;;;;;;;8.73;60.16;101264.66;5021423;28;20068;-79
2021/03/31 05:37:35;;;;;;;11.68;6.50;;;;;;;8.69;60.15;101257.69;5021254;28;20121;-79
2021/03/31 05:40:03;;;;;;;13.50;6.55;;;;;;;8.76;60.56;101264.56;5032035;28;20057;-78
2021/03/31 05:42:30;;;;;;;13.35;7.15;;;;;;;8.74;60.67;101260.22;5034413;28;20061;-78
2021/03/31 05:44:59;;;;;;;11.43;6.82;;;;;;;8.69;60.61;101262.09;5028213;28;20065;-78
2021/03/31 05:47:35;;;;;;;11.93;6.13;;;;;;;8.70;60.65;101267.34;5009352;28;20109;-78
2021/03/31 05:50:10;;;;;;;12.73;6.93;;;;;;;8.66;60.44;101255.13;4999794;28;20453;-78
2021/03/31 05:56:17;;;;;;;14.32;7.25;;;;;;;8.75;60.45;101267.25;5019551;28;20105;-78
2021/03/31 05:58:44;;;;;;;14.32;7.13;;;;;;;8.77;60.47;101266.31;5021636;28;20058;-78
2021/03/31 06:01:10;;;;;;;14.65;6.47;;;;;;;8.79;60.02;101266.28;5018410;28;20145;-78
2021/03/31 06:03:36;;;;;;;10.50;7.00;;;;;;;8.78;60.55;101270.69;5019097;28;20137;-78
2021/03/31 06:06:04;;;;;;;12.02;7.32;;;;;;;8.84;60.38;101269.63;5002540;28;20046;-78
2021/03/31 06:08:31;;;;;;;10.75;7.05;;;;;;;8.95;60.29;101272.03;5001485;28;20533;-79
2021/03/31 06:11:01;;;;;;;11.10;7.35;;;;;;;8.98;60.08;101264.84;5017220;28;20057;-79
2021/03/31 06:13:48;;;;;;;16.17;7.45;;;;;;;9.07;60.22;101269.91;5018457;28;20058;-81
2021/03/31 06:16:29;;;;;;;12.95;7.10;;;;;;;9.16;60.05;101268.78;5017357;28;20117;-78
2021/03/31 06:18:57;;;;;;;10.90;7.25;;;;;;;9.26;59.99;101267.63;5015701;28;20464;-79
2021/03/31 06:21:23;;;;;;;12.93;7.35;;;;;;;9.36;59.63;101266.47;5016468;28;20113;-79
2021/03/31 06:24:00;;;;;;;14.68;7.55;;;;;;;9.42;59.43;101265.44;5018144;28;20099;-78
2021/03/31 06:26:30;;;;;;;13.63;6.88;;;;;;;9.60;61.57;101269.34;5015334;28;20077;-78
2021/03/31 06:29:00;;;;;;;14.52;7.07;;;;;;;9.75;60.89;101269.75;5016508;28;20137;-78
2021/03/31 06:32:17;;;;;;;17.08;7.95;;;;;;;10.04;59.04;101274.16;4983836;28;20087;-79
2021/03/31 07:05:59;;;;;;;11.50;7.40;;;;;;;21.34;31.55;101267.06;5030540;28;20142;-79
2021/03/31 07:12:45;;;;;;;13.10;6.97;;;;;;;22.00;28.40;101257.31;5023703;28;20087;-79
2021/03/31 07:19:25;;;;;;;11.05;7.28;;;;;;;21.85;28.42;101258.50;5007965;28;20073;-79
2021/03/31 07:22:07;;;;;;;14.23;6.90;;;;;;;21.80;28.76;101258.88;5015343;28;20049;-79
2021/03/31 07:24:34;;;;;;;8.35;6.38;;;;;;;22.18;28.70;101249.56;5018367;28;20054;-79
2021/03/31 07:27:31;;;;;;;17.35;7.82;;;;;;;22.15;26.96;101256.06;5019027;28;20075;-79
2021/03/31 07:30:09;;;;;;;15.05;7.93;;;;;;;22.13;27.47;101260.72;5016495;28;20081;-77
2021/03/31 07:33:25;;;;;;;13.68;7.45;;;;;;;22.63;26.51;101261.06;5024464;28;20072;-77
2021/03/31 07:35:53;;;;;;;14.43;7.20;;;;;;;22.74;26.08;101259.16;5026152;28;20050;-78
2021/03/31 07:38:25;;;;;;;12.50;7.45;;;;;;;22.54;26.41;101257.28;5027998;28;20418;-78
2021/03/31 07:40:51;;;;;;;10.88;7.57;;;;;;;22.44;26.56;101264.44;5030145;28;20072;-77
2021/03/31 07:43:24;;;;;;;15.38;7.47;;;;;;;22.82;26.48;101255.00;5030494;28;20062;-77
2021/03/31 07:45:55;;;;;;;13.05;7.38;;;;;;;23.08;25.80;101254.50;5029925;28;20082;-77
2021/03/31 07:48:22;;;;;;;10.15;7.13;;;;;;;23.21;25.22;101259.69;5032514;28;20077;-79
2021/03/31 07:50:48;;;;;;;12.10;7.82;;;;;;;22.80;25.91;101251.59;5043684;28;20041;-79
2021/03/31 07:53:15;;;;;;;16.45;8.65;;;;;;;22.74;25.58;101256.47;5039889;28;20105;-79
2021/03/31 07:55:42;;;;;;;15.10;8.85;;;;;;;22.66;26.07;101256.28;5034934;28;20073;-79
2021/03/31 07:58:30;;;;;;;14.73;8.45;;;;;;;22.59;26.13;101260.47;5029566;28;20062;-80
2021/03/31 08:01:02;;;;;;;15.20;7.45;;;;;;;22.57;26.75;101254.34;5031110;28;20118;-78
2021/03/31 08:03:31;;;;;;;14.82;9.32;;;;;;;23.42;26.09;101252.44;5030778;28;20440;-78
2021/03/31 08:06:36;;;;;;;18.05;8.90;;;;;;;23.66;24.86;101252.16;5037204;28;20057;-79
2021/03/31 08:09:19;;;;;;;15.25;7.50;;;;;;;23.96;25.06;101245.00;5022520;28;20046;-79
2021/03/31 08:11:46;;;;;;;14.02;8.15;;;;;;;24.35;24.55;101248.69;5019091;28;20050;-79
2021/03/31 08:14:15;;;;;;;16.15;8.75;;;;;;;24.06;24.31;101252.16;5031882;28;20062;-79
2021/03/31 08:16:43;;;;;;;19.80;8.67;;;;;;;24.07;24.49;101251.19;5025409;28;20050;-78
2021/03/31 08:19:15;;;;;;;13.55;8.57;;;;;;;23.68;24.72;101249.31;5018931;28;20571;-78
2021/03/31 08:25:26;;;;;;;15.82;9.35;;;;;;;23.71;25.10;101249.91;5019697;28;20058;-79
2021/03/31 08:28:01;;;;;;;14.32;8.50;;;;;;;23.93;25.05;101253.38;5004379;28;20112;-80
2021/03/31 08:30:28;;;;;;;13.52;8.75;;;;;;;24.31;24.29;101247.25;5004305;28;20056;-79
2021/03/31 08:32:55;;;;;;;17.08;9.68;;;;;;;24.39;24.67;101244.72;5030454;28;20120;-78
2021/03/31 08:35:24;;;;;;;20.33;9.80;;;;;;;24.07;23.82;101251.19;5020258;28;20054;-78
2021/03/31 08:37:55;;;;;;;18.15;9.63;;;;;;;23.88;25.02;101252.97;5019400;28;20054;-79
2021/03/31 08:40:42;;;;;;;16.10;9.25;;;;;;;24.09;25.13;101246.44;5020296;28;20494;-78
2021/03/31 08:43:10;;;;;;;18.35;9.52;;;;;;;24.22;24.44;101240.81;5022766;28;20050;-81
2021/03/31 08:45:40;;;;;;;23.77;11.15;;;;;;;23.16;24.75;101243.00;5020837;28;20072;-79
2021/03/31 08:49:00;;;;;;;19.27;10.50;;;;;;;21.50;27.12;101242.44;5007570;28;20362;-80
2021/03/31 08:51:53;;;;;;;17.73;10.52;;;;;;;20.35;29.13;101244.09;5031265;28;20092;-78
2021/03/31 08:54:33;;;;;;;20.83;11.68;;;;;;;19.85;29.83;101243.28;5027226;28;20049;-79
2021/03/31 08:57:05;;;;;;;26.97;12.17;;;;;;;19.45;30.76;101234.50;5016148;28;20072;-79
2021/03/31 08:59:33;;;;;;;21.63;12.10;;;;;;;19.07;31.15;101232.66;5022514;28;21125;-78
2021/03/31 09:05:58;;;;;;;20.65;10.98;;;;;;;18.34;32.45;101226.88;5042637;28;20055;-78
2021/03/31 09:08:42;;;;;;;26.00;12.30;;;;;;;18.14;32.85;101227.31;5042781;28;20081;-78
2021/03/31 09:15:00;;;;;;;21.95;11.80;;;;;;;17.68;34.26;101216.88;5037604;28;20141;-77
2021/03/31 09:21:38;;;;;;;22.50;12.48;;;;;;;17.73;33.80;101204.06;5020196;28;20052;-76
2021/03/31 09:24:58;;;;;;;24.48;12.00;;;;;;;17.81;34.33;101201.75;5020104;28;20088;-76
2021/03/31 09:31:28;;;;;;;26.55;12.98;;;;;;;18.07;33.80;101202.75;5025711;28;20042;-76
2021/03/31 09:45:28;;;;;;;29.17;15.05;;;;;;;18.58;32.79;101193.06;5037875;28;20043;-76
2021/03/31 09:52:38;;;;;;;28.05;13.70;;;;;;;18.99;32.30;101193.91;5037729;28;20140;-77
2021/03/31 10:10:54;;;;;;;;;;;;;;;19.68;32.20;101169.25;5037575;28;20052;-77
2021/03/31 10:17:33;;;;;;;27.13;14.45;;;;;;;19.90;31.18;101160.50;5038207;28;20056;-77
2021/03/31 10:55:17;;;;;;;22.35;13.07;;;;;;;21.49;28.39;101106.84;6267985;23;20020;-81
2021/03/31 10:57:43;;;;;;;20.52;13.25;;;;;;;21.60;28.72;101111.34;6268410;23;20043;-80
2021/03/31 11:00:10;;;;;;;22.48;12.68;;;;;;;21.70;27.80;101104.25;6255606;23;20028;-80
2021/03/31 11:02:36;;;;;;;21.30;12.52;;;;;;;21.80;27.52;101107.88;6255054;23;20091;-77
2021/03/31 11:05:03;;;;;;;20.58;12.50;;;;;;;21.77;27.60;101094.66;6229310;23;20043;-79
2021/03/31 11:07:29;;;;;;;24.60;13.85;;;;;;;21.80;27.70;101089.00;6257462;23;20034;-85
2021/03/31 11:09:56;;;;;;;22.05;13.23;;;;;;;21.88;27.51;101091.91;6262819;23;20051;-77
2021/03/31 11:12:40;;;;;;;22.17;12.63;;;;;;;21.94;27.37;101077.94;6267364;23;20058;-78
2021/03/31 11:26:34;;;;;;;25.15;13.25;;;;;;;22.41;27.16;101078.47;6266282;23;20074;-78
2021/03/31 11:41:42;;;;;;;22.08;12.32;;;;;;;22.71;26.46;101058.78;6252667;23;20078;-78
2021/03/31 11:52:22;;;;;;;21.88;13.23;;;;;;;23.17;25.62;101033.97;6255535;22;20432;-79
2021/03/31 12:14:28;;;;;;;19.80;11.68;;;;;;;23.63;24.93;101000.94;6250325;23;20381;-77
2021/03/31 12:33:03;;;;;;;19.67;11.18;;;;;;;24.00;24.32;100979.47;6252393;23;20027;-78
2021/03/31 12:47:29;;;;;;;15.43;9.45;;;;;;;24.28;23.61;100968.75;6255401;23;20026;-79
2021/03/31 12:50:21;;;;;;;15.38;9.30;;;;;;;24.37;23.51;100962.47;6253855;23;20054;-78
2021/03/31 13:05:11;;;;;;;19.50;10.43;;;;;;;24.44;23.76;100939.22;6266503;23;20027;-78
2021/03/31 13:32:32;;;;;;;21.05;11.77;;;;;;;24.80;25.44;100907.69;6252714;23;20020;-79
2021/03/31 13:35:42;;;;;;;20.23;12.05;;;;;;;24.83;25.58;100891.16;6271634;22;20031;-80
2021/03/31 13:51:21;;;;;;;15.23;9.85;;;;;;;24.70;24.45;100872.56;6257038;23;20106;-79
2021/03/31 13:57:44;;;;;;;15.27;9.45;;;;;;;24.73;24.63;100863.25;6255971;23;20085;-80
2021/03/31 14:11:31;;;;;;;16.80;8.45;;;;;;;25.04;23.88;100850.22;6259343;23;20115;-78
2021/03/31 14:14:35;;;;;;;15.43;7.88;;;;;;;25.01;24.11;100846.00;6268323;23;20023;-78
2021/03/31 14:17:26;;;;;;;17.02;9.40;;;;;;;24.94;23.56;100834.06;6248114;23;20090;-78
2021/03/31 14:20:20;;;;;;;14.57;8.30;;;;;;;24.91;23.92;100830.78;6228694;23;20027;-79
2021/03/31 14:23:13;;;;;;;13.40;8.75;;;;;;;24.90;24.08;100827.22;6263004;23;20093;-79
2021/03/31 14:25:41;;;;;;;14.27;9.32;;;;;;;24.81;23.64;100829.00;6259165;23;20032;-80
2021/03/31 14:28:30;;;;;;;13.80;8.38;;;;;;;24.79;23.85;100820.16;6193318;23;20021;-78
2021/03/31 14:34:46;;;;;;;;;;;;;;;24.87;24.68;100813.16;6202530;23;20028;-79
2021/03/31 14:37:33;;;;;;;12.07;6.90;;;;;;;24.92;24.42;100810.81;6209971;23;19936;-78
2021/03/31 14:59:44;;;;;;;8.73;4.93;;;;;;;24.83;23.76;100786.34;6254281;23;20337;-83
2021/03/31 15:02:13;;;;;;;8.98;5.47;;;;;;;24.78;23.45;100785.09;6257847;23;20111;-79
2021/03/31 15:04:42;;;;;;;8.48;5.15;;;;;;;24.75;23.50;100775.44;6263966;23;20046;-78
2021/03/31 15:07:09;;;;;;;10.43;5.38;;;;;;;24.73;23.33;100777.44;6257769;23;20016;-79
2021/03/31 15:09:36;;;;;;;11.35;5.53;;;;;;;24.72;23.25;100773.03;6257113;23;20027;-79
2021/03/31 15:12:03;;;;;;;7.68;5.00;;;;;;;25.02;22.88;100766.41;6260091;23;20034;-79
2021/03/31 15:14:30;;;;;;;10.70;5.30;;;;;;;25.26;23.28;100767.63;6263409;23;20450;-79
2021/03/31 15:17:22;;;;;;;12.23;6.63;;;;;;;25.16;23.22;100773.13;6178238;23;20028;-79
2021/03/31 15:20:08;;;;;;;9.25;5.53;;;;;;;25.04;23.25;100763.53;6190659;23;20017;-80
2021/03/31 15:23:25;;;;;;;9.10;5.13;;;;;;;24.85;23.10;100761.81;6169322;23;20024;-78
2021/03/31 15:25:53;;;;;;;10.50;5.28;;;;;;;24.73;22.65;100760.31;6164294;23;20025;-79
2021/03/31 15:28:19;;;;;;;7.00;5.30;;;;;;;24.67;22.83;100751.00;6188299;23;20024;-79
2021/03/31 15:31:06;;;;;;;8.82;5.68;;;;;;;24.63;23.28;100749.59;6189014;23;20021;-79
2021/03/31 15:33:57;;;;;;;11.30;4.93;;;;;;;24.53;22.89;100747.97;6187169;23;20017;-81
2021/03/31 15:36:24;;;;;;;7.35;4.50;;;;;;;24.48;23.26;100745.72;6187816;23;20029;-87
2021/03/31 15:38:51;;;;;;;7.97;5.40;;;;;;;24.41;23.63;100750.88;6187757;23;20049;-79
2021/03/31 15:41:17;;;;;;;9.63;5.85;;;;;;;24.34;24.36;100743.53;6205113;23;20020;-79
2021/03/31 16:37:54;;;;;;;11.85;4.80;;;;;;;22.80;24.92;100703.44;6256288;22;20038;-79
2021/03/31 16:40:51;;;;;;;7.25;4.57;;;;;;;22.73;25.26;100698.56;6253962;23;20391;-78
2021/03/31 16:43:22;;;;;;;7.18;4.85;;;;;;;22.68;25.37;100692.72;6255560;23;20027;-79
2021/03/31 16:45:51;;;;;;;11.68;4.32;;;;;;;22.63;25.34;100694.19;6255181;23;20104;-81
2021/03/31 16:48:17;;;;;;;8.73;4.43;;;;;;;22.61;25.15;100701.56;6254758;23;20020;-79
2021/03/31 16:50:44;;;;;;;6.70;3.80;;;;;;;22.54;25.63;100697.72;6256682;23;20081;-80
2021/03/31 17:01:18;;;;;;;8.80;4.50;;;;;;;22.31;25.75;100702.53;6262853;23;20080;-79
2021/03/31 17:07:57;;;;;;;6.78;3.88;;;;;;;22.22;26.25;100695.25;6258718;23;20023;-79
2021/03/31 17:14:56;;;;;;;6.63;4.72;;;;;;;22.05;26.69;100699.47;6256917;23;20019;-79
2021/03/31 17:21:14;;;;;;;7.95;3.80;;;;;;;21.91;26.67;100684.50;6263412;23;20022;-78
2021/03/31 17:23:46;;;;;;;11.20;4.20;;;;;;;21.88;26.88;100684.78;6261253;23;20016;-80
2021/03/31 17:26:17;;;;;;;7.22;3.60;;;;;;;21.83;26.75;100678.97;6263712;23;20016;-79
2021/03/31 17:28:49;;;;;;;9.52;4.00;;;;;;;21.80;27.08;100673.84;6262516;23;20027;-78
2021/03/31 17:31:15;;;;;;;7.07;4.30;;;;;;;21.82;27.02;100682.66;6261174;23;20020;-80
2021/03/31 17:33:47;;;;;;;6.63;4.47;;;;;;;21.78;27.64;100680.34;6265099;23;20023;-79
2021/03/31 17:36:20;;;;;;;7.85;4.60;;;;;;;21.69;27.91;100673.97;6269298;23;20016;-78
2021/03/31 17:46:22;;;;;;;7.22;4.10;;;;;;;21.50;28.91;100679.25;6261982;23;20023;-78
2021/03/31 17:49:25;;;;;;;6.90;4.25;;;;;;;21.41;29.26;100689.00;6242062;23;20031;-78
2021/03/31 18:34:50;;;;;;;26.45;17.67;;;;;;;19.75;33.65;100696.72;6254808;23;20473;-78
2021/03/31 18:48:47;;;;;;;12.82;7.75;;;;;;;19.32;35.24;100697.44;6261259;22;20065;-79
2021/03/31 18:59:57;;;;;;;13.98;9.10;;;;;;;18.97;36.18;100699.31;6267682;22;20047;-80
2021/03/31 19:06:39;;;;;;;17.92;12.85;;;;;;;18.74;36.97;100711.78;6266309;23;20076;-80
2021/03/31 19:13:06;;;;;;;16.05;9.50;;;;;;;18.52;37.97;100702.66;6267902;23;20019;-79
2021/03/31 19:15:32;;;;;;;14.15;9.15;;;;;;;18.42;38.35;100698.09;6267353;23;20080;-81
2021/03/31 19:18:50;;;;;;;17.35;9.40;;;;;;;18.38;38.52;100704.69;6264191;23;20107;-79